Terminal Aerodrome Forecast
Issued by NWS Buffalo, NY

Current Version | Previous Version | Text Only | Print | Product List | Glossary On
Versions: 1 2 3 4 5 6 7 8 9 10 11 12 13 14 15 16 17 18 19 20 21 22 23 24 25 26 27 28
000
FTUS41 KBUF 280902 AAB
TAFROC
TAF AMD
KROC 280902Z 2809/2906 VRB03KT 3SM BR SCT250
      TEMPO 2809/2811 1SM BR
     FM281200 12004KT P6SM SCT250
     FM281600 12005KT P6SM SCT045
     FM281800 10006KT P6SM BKN045
     FM282100 11007KT P6SM VCSH BKN045
     FM282300 13006KT 6SM -SHRA OVC050=

USA.gov is the U.S. government's official web portal to all federal, state and local government web resources and services.